Terminal Aerodrome Forecast
Issued by NWS Shreveport, LA

Home | Current Version | Previous Version | Text Only | Print | Product List | Glossary On
Versions: 1 2 3 4 5 6 7 8 9 10 11 12 13 14 15 16 17
000
FTUS44 KSHV 251700
TAFTYR
TAF
KTYR 251720Z 2518/2618 18014G19KT P6SM SKC
     FM252100 17013G18KT P6SM SKC
     FM260300 17014KT P6SM SCT250
     FM260600 16010KT P6SM OVC025
     FM261600 15010KT P6SM -SHRA OVC025=

USA.gov is the U.S. government's official web portal to all federal, state and local government web resources and services.